sensor_id;sensor_type;location;lat;lon;timestamp;temperature;humidity
25568;DHT22;13455;51.480;7.594;2023-04-07T00:00:24;7.60;99.90
25568;DHT22;13455;51.480;7.594;2023-04-07T00:02:51;7.70;99.90
25568;DHT22;13455;51.480;7.594;2023-04-07T00:05:17;7.60;99.90
25568;DHT22;13455;51.480;7.594;2023-04-07T00:07:42;7.60;99.90
25568;DHT22;13455;51.480;7.594;2023-04-07T00:10:09;7.60;99.90
25568;DHT22;13455;51.480;7.594;2023-04-07T00:12:34;7.60;99.90
25568;DHT22;13455;51.480;7.594;2023-04-07T00:15:00;7.60;99.90
25568;DHT22;13455;51.480;7.594;2023-04-07T00:17:26;7.60;99.90
25568;DHT22;13455;51.480;7.594;2023-04-07T00:19:52;8.50;99.90
25568;DHT22;13455;51.480;7.594;2023-04-07T00:22:17;7.60;99.90
25568;DHT22;13455;51.480;7.594;2023-04-07T00:24:43;7.60;99.90
25568;DHT22;13455;51.480;7.594;2023-04-07T00:27:09;7.60;99.90
25568;DHT22;13455;51.480;7.594;2023-04-07T00:29:34;7.60;99.90
25568;DHT22;13455;51.480;7.594;2023-04-07T00:32:00;7.60;99.90
25568;DHT22;13455;51.480;7.594;2023-04-07T00:34:26;7.60;99.90
25568;DHT22;13455;51.480;7.594;2023-04-07T00:36:51;7.60;99.90
25568;DHT22;13455;51.480;7.594;2023-04-07T00:39:18;7.60;99.90
25568;DHT22;13455;51.480;7.594;2023-04-07T00:41:44;8.40;99.90
25568;DHT22;13455;51.480;7.594;2023-04-07T00:44:10;7.60;99.90
25568;DHT22;13455;51.480;7.594;2023-04-07T00:46:36;7.60;99.90
25568;DHT22;13455;51.480;7.594;2023-04-07T00:49:02;7.60;99.90
25568;DHT22;13455;51.480;7.594;2023-04-07T00:51:28;7.60;99.90
25568;DHT22;13455;51.480;7.594;2023-04-07T00:53:54;7.60;99.90
25568;DHT22;13455;51.480;7.594;2023-04-07T00:56:20;7.60;99.90
25568;DHT22;13455;51.480;7.594;2023-04-07T00:58:45;7.60;99.90
25568;DHT22;13455;51.480;7.594;2023-04-07T01:01:24;7.20;99.90
25568;DHT22;13455;51.480;7.594;2023-04-07T01:04:00;7.60;99.90
25568;DHT22;13455;51.480;7.594;2023-04-07T01:06:29;7.60;99.90
25568;DHT22;13455;51.480;7.594;2023-04-07T01:09:04;7.60;99.90
25568;DHT22;13455;51.480;7.594;2023-04-07T01:11:43;7.60;99.90
25568;DHT22;13455;51.480;7.594;2023-04-07T01:14:12;7.60;99.90
25568;DHT22;13455;51.480;7.594;2023-04-07T01:16:51;7.60;99.90
25568;DHT22;13455;51.480;7.594;2023-04-07T01:19:39;7.60;99.90
25568;DHT22;13455;51.480;7.594;2023-04-07T01:22:11;7.60;99.90
25568;DHT22;13455;51.480;7.594;2023-04-07T01:30:11;7.70;99.90
25568;DHT22;13455;51.480;7.594;2023-04-07T01:32:39;7.70;99.90
25568;DHT22;13455;51.480;7.594;2023-04-07T01:35:10;8.50;99.90
25568;DHT22;13455;51.480;7.594;2023-04-07T01:37:36;7.60;99.90
25568;DHT22;13455;51.480;7.594;2023-04-07T01:40:04;7.60;99.90
25568;DHT22;13455;51.480;7.594;2023-04-07T01:42:32;7.80;99.90
25568;DHT22;13455;51.480;7.594;2023-04-07T01:45:00;7.10;99.90
25568;DHT22;13455;51.480;7.594;2023-04-07T01:47:27;7.50;99.90
25568;DHT22;13455;51.480;7.594;2023-04-07T01:49:57;8.80;99.90
25568;DHT22;13455;51.480;7.594;2023-04-07T01:52:25;9.10;99.90
25568;DHT22;13455;51.480;7.594;2023-04-07T01:54:52;8.50;99.90
25568;DHT22;13455;51.480;7.594;2023-04-07T01:57:17;8.60;99.90
25568;DHT22;13455;51.480;7.594;2023-04-07T01:59:43;7.70;99.90
25568;DHT22;13455;51.480;7.594;2023-04-07T02:02:08;7.70;99.90
25568;DHT22;13455;51.480;7.594;2023-04-07T02:04:35;7.70;99.90
25568;DHT22;13455;51.480;7.594;2023-04-07T02:07:14;7.60;99.90
25568;DHT22;13455;51.480;7.594;2023-04-07T02:09:46;7.40;99.90
25568;DHT22;13455;51.480;7.594;2023-04-07T02:12:13;8.50;99.90
25568;DHT22;13455;51.480;7.594;2023-04-07T02:14:41;8.00;99.90
25568;DHT22;13455;51.480;7.594;2023-04-07T02:17:08;7.90;99.90
25568;DHT22;13455;51.480;7.594;2023-04-07T02:19:34;8.30;99.90
25568;DHT22;13455;51.480;7.594;2023-04-07T02:22:02;7.70;99.90
25568;DHT22;13455;51.480;7.594;2023-04-07T02:24:29;7.70;99.90
25568;DHT22;13455;51.480;7.594;2023-04-07T02:26:54;8.60;99.90
25568;DHT22;13455;51.480;7.594;2023-04-07T02:29:20;7.70;99.90
25568;DHT22;13455;51.480;7.594;2023-04-07T02:31:46;7.70;99.90
25568;DHT22;13455;51.480;7.594;2023-04-07T02:34:11;8.20;99.90
25568;DHT22;13455;51.480;7.594;2023-04-07T02:36:37;7.80;99.90
25568;DHT22;13455;51.480;7.594;2023-04-07T02:39:03;8.30;99.90
25568;DHT22;13455;51.480;7.594;2023-04-07T02:41:28;7.80;99.90
25568;DHT22;13455;51.480;7.594;2023-04-07T02:43:54;7.80;99.90
25568;DHT22;13455;51.480;7.594;2023-04-07T02:46:20;9.00;99.90
25568;DHT22;13455;51.480;7.594;2023-04-07T02:48:45;8.20;99.90
25568;DHT22;13455;51.480;7.594;2023-04-07T02:51:11;7.70;99.90
25568;DHT22;13455;51.480;7.594;2023-04-07T02:53:37;7.80;99.90
25568;DHT22;13455;51.480;7.594;2023-04-07T02:56:02;7.80;99.90
25568;DHT22;13455;51.480;7.594;2023-04-07T02:58:28;8.00;99.90
25568;DHT22;13455;51.480;7.594;2023-04-07T03:00:54;8.50;99.90
25568;DHT22;13455;51.480;7.594;2023-04-07T03:03:19;7.90;99.90
25568;DHT22;13455;51.480;7.594;2023-04-07T03:05:45;8.20;99.90
25568;DHT22;13455;51.480;7.594;2023-04-07T03:08:11;9.90;99.90
25568;DHT22;13455;51.480;7.594;2023-04-07T03:10:36;8.20;99.90
25568;DHT22;13455;51.480;7.594;2023-04-07T03:13:02;7.40;99.90
25568;DHT22;13455;51.480;7.594;2023-04-07T03:17:54;7.80;99.90
25568;DHT22;13455;51.480;7.594;2023-04-07T03:20:19;7.90;99.90
25568;DHT22;13455;51.480;7.594;2023-04-07T03:22:45;8.00;99.90
25568;DHT22;13455;51.480;7.594;2023-04-07T03:25:12;7.90;99.90
25568;DHT22;13455;51.480;7.594;2023-04-07T03:27:37;7.90;99.90
25568;DHT22;13455;51.480;7.594;2023-04-07T03:30:03;8.20;99.90
25568;DHT22;13455;51.480;7.594;2023-04-07T03:32:29;8.00;99.90
25568;DHT22;13455;51.480;7.594;2023-04-07T03:34:55;8.90;99.90
25568;DHT22;13455;51.480;7.594;2023-04-07T03:37:21;8.90;99.90
25568;DHT22;13455;51.480;7.594;2023-04-07T03:39:47;8.80;99.90
25568;DHT22;13455;51.480;7.594;2023-04-07T03:42:12;8.00;99.90
25568;DHT22;13455;51.480;7.594;2023-04-07T03:44:38;8.80;99.90
25568;DHT22;13455;51.480;7.594;2023-04-07T03:47:03;7.90;99.90
25568;DHT22;13455;51.480;7.594;2023-04-07T03:49:29;7.90;99.90
25568;DHT22;13455;51.480;7.594;2023-04-07T03:51:56;8.10;99.90
25568;DHT22;13455;51.480;7.594;2023-04-07T03:54:22;7.90;99.90
25568;DHT22;13455;51.480;7.594;2023-04-07T03:56:47;7.90;99.90
25568;DHT22;13455;51.480;7.594;2023-04-07T03:59:13;7.90;99.90
25568;DHT22;13455;51.480;7.594;2023-04-07T04:01:39;7.90;99.90
25568;DHT22;13455;51.480;7.594;2023-04-07T04:04:05;7.90;99.90
25568;DHT22;13455;51.480;7.594;2023-04-07T04:06:30;7.90;99.90
25568;DHT22;13455;51.480;7.594;2023-04-07T04:08:56;7.90;99.90
25568;DHT22;13455;51.480;7.594;2023-04-07T04:11:22;7.90;99.90
25568;DHT22;13455;51.480;7.594;2023-04-07T04:13:47;9.00;99.90
25568;DHT22;13455;51.480;7.594;2023-04-07T04:16:13;7.90;99.90
25568;DHT22;13455;51.480;7.594;2023-04-07T04:18:38;7.90;99.90
25568;DHT22;13455;51.480;7.594;2023-04-07T04:21:06;8.00;99.90
25568;DHT22;13455;51.480;7.594;2023-04-07T04:23:31;7.90;99.90
25568;DHT22;13455;51.480;7.594;2023-04-07T04:25:57;8.00;99.90
25568;DHT22;13455;51.480;7.594;2023-04-07T04:28:24;8.00;99.90
25568;DHT22;13455;51.480;7.594;2023-04-07T04:30:50;8.00;99.90
25568;DHT22;13455;51.480;7.594;2023-04-07T04:33:15;8.00;99.90
25568;DHT22;13455;51.480;7.594;2023-04-07T04:35:41;8.00;99.90
25568;DHT22;13455;51.480;7.594;2023-04-07T04:38:06;8.00;99.90
25568;DHT22;13455;51.480;7.594;2023-04-07T04:40:32;8.00;99.90
25568;DHT22;13455;51.480;7.594;2023-04-07T04:42:57;8.90;99.90
25568;DHT22;13455;51.480;7.594;2023-04-07T04:45:23;8.00;99.90
25568;DHT22;13455;51.480;7.594;2023-04-07T04:47:49;8.00;99.90
25568;DHT22;13455;51.480;7.594;2023-04-07T04:50:15;7.90;99.90
25568;DHT22;13455;51.480;7.594;2023-04-07T04:52:40;8.00;99.90
25568;DHT22;13455;51.480;7.594;2023-04-07T04:55:06;8.00;99.90
25568;DHT22;13455;51.480;7.594;2023-04-07T04:57:32;8.00;99.90
25568;DHT22;13455;51.480;7.594;2023-04-07T05:00:00;8.00;99.90
25568;DHT22;13455;51.480;7.594;2023-04-07T05:02:26;8.40;99.90
25568;DHT22;13455;51.480;7.594;2023-04-07T05:04:51;8.00;99.90
25568;DHT22;13455;51.480;7.594;2023-04-07T05:07:17;8.00;99.90
25568;DHT22;13455;51.480;7.594;2023-04-07T05:09:43;8.00;99.90
25568;DHT22;13455;51.480;7.594;2023-04-07T05:12:08;8.00;99.90
25568;DHT22;13455;51.480;7.594;2023-04-07T05:14:34;8.00;99.90
25568;DHT22;13455;51.480;7.594;2023-04-07T05:16:59;8.00;99.90
25568;DHT22;13455;51.480;7.594;2023-04-07T05:19:26;8.10;99.90
25568;DHT22;13455;51.480;7.594;2023-04-07T05:21:53;8.10;99.90
25568;DHT22;13455;51.480;7.594;2023-04-07T05:24:19;8.10;99.90
25568;DHT22;13455;51.480;7.594;2023-04-07T05:26:45;8.10;99.90
25568;DHT22;13455;51.480;7.594;2023-04-07T05:29:10;8.10;99.90
25568;DHT22;13455;51.480;7.594;2023-04-07T05:31:36;8.20;99.90
25568;DHT22;13455;51.480;7.594;2023-04-07T05:34:02;8.10;99.90
25568;DHT22;13455;51.480;7.594;2023-04-07T05:36:27;8.10;99.90
25568;DHT22;13455;51.480;7.594;2023-04-07T05:38:53;8.50;99.90
25568;DHT22;13455;51.480;7.594;2023-04-07T05:41:18;8.80;99.90
25568;DHT22;13455;51.480;7.594;2023-04-07T05:43:44;8.20;99.90
25568;DHT22;13455;51.480;7.594;2023-04-07T05:46:09;8.20;99.90
25568;DHT22;13455;51.480;7.594;2023-04-07T05:48:35;8.20;99.90
25568;DHT22;13455;51.480;7.594;2023-04-07T05:51:01;8.70;99.90
25568;DHT22;13455;51.480;7.594;2023-04-07T05:53:26;8.20;99.90
25568;DHT22;13455;51.480;7.594;2023-04-07T05:55:52;8.30;99.90
25568;DHT22;13455;51.480;7.594;2023-04-07T05:58:17;8.30;99.90
25568;DHT22;13455;51.480;7.594;2023-04-07T06:00:43;8.30;99.90
25568;DHT22;13455;51.480;7.594;2023-04-07T06:03:09;8.30;99.90
25568;DHT22;13455;51.480;7.594;2023-04-07T06:05:35;8.30;99.90
25568;DHT22;13455;51.480;7.594;2023-04-07T06:08:00;8.40;99.90
25568;DHT22;13455;51.480;7.594;2023-04-07T06:10:26;9.00;99.90
25568;DHT22;13455;51.480;7.594;2023-04-07T06:12:52;8.70;99.90
25568;DHT22;13455;51.480;7.594;2023-04-07T06:15:17;8.40;99.90
25568;DHT22;13455;51.480;7.594;2023-04-07T06:17:43;8.40;99.90
25568;DHT22;13455;51.480;7.594;2023-04-07T06:20:10;8.40;99.90
25568;DHT22;13455;51.480;7.594;2023-04-07T06:22:37;8.40;99.90
25568;DHT22;13455;51.480;7.594;2023-04-07T06:25:03;8.40;99.90
25568;DHT22;13455;51.480;7.594;2023-04-07T06:27:29;8.50;99.90
25568;DHT22;13455;51.480;7.594;2023-04-07T06:29:55;8.50;99.90
25568;DHT22;13455;51.480;7.594;2023-04-07T06:32:21;8.50;99.90
25568;DHT22;13455;51.480;7.594;2023-04-07T06:34:46;8.50;99.90
25568;DHT22;13455;51.480;7.594;2023-04-07T06:37:12;8.60;99.90
25568;DHT22;13455;51.480;7.594;2023-04-07T06:39:38;8.60;99.90
25568;DHT22;13455;51.480;7.594;2023-04-07T06:42:03;8.60;99.90
25568;DHT22;13455;51.480;7.594;2023-04-07T06:44:29;8.60;99.90
25568;DHT22;13455;51.480;7.594;2023-04-07T06:46:55;8.60;99.90
25568;DHT22;13455;51.480;7.594;2023-04-07T06:49:20;8.60;99.90
25568;DHT22;13455;51.480;7.594;2023-04-07T06:51:46;8.30;99.90
25568;DHT22;13455;51.480;7.594;2023-04-07T06:54:12;8.60;99.90
25568;DHT22;13455;51.480;7.594;2023-04-07T06:56:39;8.60;99.90
25568;DHT22;13455;51.480;7.594;2023-04-07T06:59:05;8.60;99.90
25568;DHT22;13455;51.480;7.594;2023-04-07T07:01:30;8.70;99.90
25568;DHT22;13455;51.480;7.594;2023-04-07T07:03:56;8.60;99.90
25568;DHT22;13455;51.480;7.594;2023-04-07T07:06:22;8.70;99.90
25568;DHT22;13455;51.480;7.594;2023-04-07T07:08:47;8.60;99.90
25568;DHT22;13455;51.480;7.594;2023-04-07T07:11:13;8.70;99.90
25568;DHT22;13455;51.480;7.594;2023-04-07T07:13:39;8.70;99.90
25568;DHT22;13455;51.480;7.594;2023-04-07T07:16:05;8.70;99.90
25568;DHT22;13455;51.480;7.594;2023-04-07T07:18:30;8.70;99.90
25568;DHT22;13455;51.480;7.594;2023-04-07T07:20:56;8.80;99.90
25568;DHT22;13455;51.480;7.594;2023-04-07T07:23:21;8.90;99.90
25568;DHT22;13455;51.480;7.594;2023-04-07T07:25:47;9.00;99.90
25568;DHT22;13455;51.480;7.594;2023-04-07T07:28:13;8.80;99.90
25568;DHT22;13455;51.480;7.594;2023-04-07T07:30:38;8.90;99.90
25568;DHT22;13455;51.480;7.594;2023-04-07T07:33:05;9.40;99.90
25568;DHT22;13455;51.480;7.594;2023-04-07T07:35:31;8.90;99.90
25568;DHT22;13455;51.480;7.594;2023-04-07T07:37:57;8.90;99.90
25568;DHT22;13455;51.480;7.594;2023-04-07T07:40:22;8.90;99.90
25568;DHT22;13455;51.480;7.594;2023-04-07T07:42:48;9.00;99.90
25568;DHT22;13455;51.480;7.594;2023-04-07T07:45:14;9.10;99.90
25568;DHT22;13455;51.480;7.594;2023-04-07T07:47:40;9.50;99.90
25568;DHT22;13455;51.480;7.594;2023-04-07T07:50:06;9.00;99.90
25568;DHT22;13455;51.480;7.594;2023-04-07T07:52:32;9.00;99.90
25568;DHT22;13455;51.480;7.594;2023-04-07T07:54:57;10.10;99.90
25568;DHT22;13455;51.480;7.594;2023-04-07T07:57:23;9.40;99.90
25568;DHT22;13455;51.480;7.594;2023-04-07T07:59:48;9.00;99.90
25568;DHT22;13455;51.480;7.594;2023-04-07T08:02:14;9.00;99.90
25568;DHT22;13455;51.480;7.594;2023-04-07T08:04:40;9.00;99.90
25568;DHT22;13455;51.480;7.594;2023-04-07T08:07:06;8.20;99.90
25568;DHT22;13455;51.480;7.594;2023-04-07T08:09:31;9.10;99.90
25568;DHT22;13455;51.480;7.594;2023-04-07T08:11:57;9.90;99.90
25568;DHT22;13455;51.480;7.594;2023-04-07T08:14:23;9.20;99.90
25568;DHT22;13455;51.480;7.594;2023-04-07T08:16:49;9.30;99.90
25568;DHT22;13455;51.480;7.594;2023-04-07T08:19:14;10.40;99.90
25568;DHT22;13455;51.480;7.594;2023-04-07T08:21:40;9.30;99.90
25568;DHT22;13455;51.480;7.594;2023-04-07T08:24:08;10.40;99.90
25568;DHT22;13455;51.480;7.594;2023-04-07T08:26:34;9.30;99.90
25568;DHT22;13455;51.480;7.594;2023-04-07T08:29:00;9.30;99.90
25568;DHT22;13455;51.480;7.594;2023-04-07T08:31:25;9.40;99.90
25568;DHT22;13455;51.480;7.594;2023-04-07T08:33:51;9.40;99.90
25568;DHT22;13455;51.480;7.594;2023-04-07T08:36:22;9.40;99.90
25568;DHT22;13455;51.480;7.594;2023-04-07T08:38:48;9.40;99.90
25568;DHT22;13455;51.480;7.594;2023-04-07T08:41:17;10.50;99.90
25568;DHT22;13455;51.480;7.594;2023-04-07T08:43:46;9.40;99.90
25568;DHT22;13455;51.480;7.594;2023-04-07T08:46:13;9.60;99.90
25568;DHT22;13455;51.480;7.594;2023-04-07T08:48:42;9.40;99.90
25568;DHT22;13455;51.480;7.594;2023-04-07T08:51:09;9.70;99.90
25568;DHT22;13455;51.480;7.594;2023-04-07T08:53:49;9.50;99.90
25568;DHT22;13455;51.480;7.594;2023-04-07T08:56:17;9.50;99.90
25568;DHT22;13455;51.480;7.594;2023-04-07T08:58:44;9.50;99.90
25568;DHT22;13455;51.480;7.594;2023-04-07T09:01:10;9.80;99.90
25568;DHT22;13455;51.480;7.594;2023-04-07T09:03:37;9.60;99.90
25568;DHT22;13455;51.480;7.594;2023-04-07T09:06:03;10.30;99.90
25568;DHT22;13455;51.480;7.594;2023-04-07T09:08:29;9.60;99.90
25568;DHT22;13455;51.480;7.594;2023-04-07T09:10:56;10.20;99.90
25568;DHT22;13455;51.480;7.594;2023-04-07T09:13:23;9.90;99.90
25568;DHT22;13455;51.480;7.594;2023-04-07T09:15:49;10.10;99.90
25568;DHT22;13455;51.480;7.594;2023-04-07T09:18:15;10.00;99.90
25568;DHT22;13455;51.480;7.594;2023-04-07T09:21:16;9.70;99.90
25568;DHT22;13455;51.480;7.594;2023-04-07T09:23:42;9.80;99.90
25568;DHT22;13455;51.480;7.594;2023-04-07T09:28:45;9.90;99.90
25568;DHT22;13455;51.480;7.594;2023-04-07T09:31:11;11.00;99.90
25568;DHT22;13455;51.480;7.594;2023-04-07T09:33:37;9.80;99.90
25568;DHT22;13455;51.480;7.594;2023-04-07T09:36:03;9.90;99.90
25568;DHT22;13455;51.480;7.594;2023-04-07T09:38:38;9.90;99.90
25568;DHT22;13455;51.480;7.594;2023-04-07T09:41:06;9.90;99.90
25568;DHT22;13455;51.480;7.594;2023-04-07T09:43:45;9.90;99.90
25568;DHT22;13455;51.480;7.594;2023-04-07T09:46:18;9.70;99.90
25568;DHT22;13455;51.480;7.594;2023-04-07T09:48:45;9.80;99.90
25568;DHT22;13455;51.480;7.594;2023-04-07T09:51:11;9.80;99.90
25568;DHT22;13455;51.480;7.594;2023-04-07T09:53:47;9.90;99.90
25568;DHT22;13455;51.480;7.594;2023-04-07T09:56:15;9.80;99.90
25568;DHT22;13455;51.480;7.594;2023-04-07T09:58:43;9.90;99.90
25568;DHT22;13455;51.480;7.594;2023-04-07T10:01:09;9.90;99.90
25568;DHT22;13455;51.480;7.594;2023-04-07T10:03:36;9.90;99.90
25568;DHT22;13455;51.480;7.594;2023-04-07T10:06:03;10.00;99.90
25568;DHT22;13455;51.480;7.594;2023-04-07T10:08:34;10.00;99.90
25568;DHT22;13455;51.480;7.594;2023-04-07T10:11:01;10.00;99.90
25568;DHT22;13455;51.480;7.594;2023-04-07T10:13:31;10.00;99.90
25568;DHT22;13455;51.480;7.594;2023-04-07T10:15:57;10.30;99.90
25568;DHT22;13455;51.480;7.594;2023-04-07T10:18:31;10.00;99.90
25568;DHT22;13455;51.480;7.594;2023-04-07T10:21:00;10.70;99.90
25568;DHT22;13455;51.480;7.594;2023-04-07T10:26:18;10.00;99.90
25568;DHT22;13455;51.480;7.594;2023-04-07T10:28:49;10.10;99.90
25568;DHT22;13455;51.480;7.594;2023-04-07T10:31:16;10.10;99.90
25568;DHT22;13455;51.480;7.594;2023-04-07T10:33:49;10.10;99.90
25568;DHT22;13455;51.480;7.594;2023-04-07T10:36:17;10.10;99.90
25568;DHT22;13455;51.480;7.594;2023-04-07T10:41:37;10.10;99.90
25568;DHT22;13455;51.480;7.594;2023-04-07T10:44:05;10.10;99.90
25568;DHT22;13455;51.480;7.594;2023-04-07T10:49:16;10.00;99.90
25568;DHT22;13455;51.480;7.594;2023-04-07T10:51:42;10.00;99.90
25568;DHT22;13455;51.480;7.594;2023-04-07T10:54:18;10.10;99.90
25568;DHT22;13455;51.480;7.594;2023-04-07T10:57:05;10.10;99.90
25568;DHT22;13455;51.480;7.594;2023-04-07T10:59:33;10.10;99.90
25568;DHT22;13455;51.480;7.594;2023-04-07T11:04:37;10.10;99.90
25568;DHT22;13455;51.480;7.594;2023-04-07T11:07:03;11.50;99.90
25568;DHT22;13455;51.480;7.594;2023-04-07T11:09:29;10.20;99.90
25568;DHT22;13455;51.480;7.594;2023-04-07T11:11:55;10.10;99.90
25568;DHT22;13455;51.480;7.594;2023-04-07T11:14:27;10.00;99.90
25568;DHT22;13455;51.480;7.594;2023-04-07T11:16:54;10.20;99.90
25568;DHT22;13455;51.480;7.594;2023-04-07T11:19:20;10.20;99.90
25568;DHT22;13455;51.480;7.594;2023-04-07T11:21:45;9.60;99.90
25568;DHT22;13455;51.480;7.594;2023-04-07T11:24:39;10.20;99.90
25568;DHT22;13455;51.480;7.594;2023-04-07T11:27:05;10.20;99.90
25568;DHT22;13455;51.480;7.594;2023-04-07T11:29:32;10.30;99.90
25568;DHT22;13455;51.480;7.594;2023-04-07T11:32:00;10.30;99.90
25568;DHT22;13455;51.480;7.594;2023-04-07T11:34:34;10.30;99.90
25568;DHT22;13455;51.480;7.594;2023-04-07T11:37:19;10.30;99.90
25568;DHT22;13455;51.480;7.594;2023-04-07T11:39:51;10.30;99.90
25568;DHT22;13455;51.480;7.594;2023-04-07T11:42:33;10.30;99.90
25568;DHT22;13455;51.480;7.594;2023-04-07T11:44:59;10.30;99.90
25568;DHT22;13455;51.480;7.594;2023-04-07T11:47:36;10.20;99.90
25568;DHT22;13455;51.480;7.594;2023-04-07T11:50:02;10.00;99.90
25568;DHT22;13455;51.480;7.594;2023-04-07T11:52:28;10.20;99.90
25568;DHT22;13455;51.480;7.594;2023-04-07T11:54:53;10.30;99.90
25568;DHT22;13455;51.480;7.594;2023-04-07T11:57:27;10.90;99.90
25568;DHT22;13455;51.480;7.594;2023-04-07T12:00:06;10.20;99.90
25568;DHT22;13455;51.480;7.594;2023-04-07T12:02:32;10.30;99.90
25568;DHT22;13455;51.480;7.594;2023-04-07T12:04:58;10.30;99.90
25568;DHT22;13455;51.480;7.594;2023-04-07T12:07:24;11.40;99.90
25568;DHT22;13455;51.480;7.594;2023-04-07T12:09:50;10.30;99.90
25568;DHT22;13455;51.480;7.594;2023-04-07T12:12:24;10.50;99.90
25568;DHT22;13455;51.480;7.594;2023-04-07T12:14:51;9.90;99.90
25568;DHT22;13455;51.480;7.594;2023-04-07T12:17:21;10.60;99.90
25568;DHT22;13455;51.480;7.594;2023-04-07T12:19:47;10.40;99.90
25568;DHT22;13455;51.480;7.594;2023-04-07T12:22:12;10.40;99.90
25568;DHT22;13455;51.480;7.594;2023-04-07T12:24:38;10.30;99.90
25568;DHT22;13455;51.480;7.594;2023-04-07T12:27:04;11.00;99.90
25568;DHT22;13455;51.480;7.594;2023-04-07T12:29:29;9.90;99.90
25568;DHT22;13455;51.480;7.594;2023-04-07T12:31:55;10.10;99.90
25568;DHT22;13455;51.480;7.594;2023-04-07T12:34:21;10.70;99.90
25568;DHT22;13455;51.480;7.594;2023-04-07T12:36:47;10.20;99.90
25568;DHT22;13455;51.480;7.594;2023-04-07T12:39:13;10.60;99.90
25568;DHT22;13455;51.480;7.594;2023-04-07T12:41:39;10.20;99.90
25568;DHT22;13455;51.480;7.594;2023-04-07T12:44:06;10.30;99.90
25568;DHT22;13455;51.480;7.594;2023-04-07T12:46:32;10.30;99.90
25568;DHT22;13455;51.480;7.594;2023-04-07T12:48:58;11.00;99.90
25568;DHT22;13455;51.480;7.594;2023-04-07T12:51:24;10.60;99.90
25568;DHT22;13455;51.480;7.594;2023-04-07T12:53:50;11.10;99.90
25568;DHT22;13455;51.480;7.594;2023-04-07T12:56:16;12.00;99.90
25568;DHT22;13455;51.480;7.594;2023-04-07T12:58:41;11.20;99.90
25568;DHT22;13455;51.480;7.594;2023-04-07T13:01:07;11.70;99.90
25568;DHT22;13455;51.480;7.594;2023-04-07T13:03:33;11.80;99.90
25568;DHT22;13455;51.480;7.594;2023-04-07T13:05:58;11.60;99.90
25568;DHT22;13455;51.480;7.594;2023-04-07T13:08:26;10.60;99.90
25568;DHT22;13455;51.480;7.594;2023-04-07T13:10:53;11.70;99.90
25568;DHT22;13455;51.480;7.594;2023-04-07T13:13:19;10.60;99.90
25568;DHT22;13455;51.480;7.594;2023-04-07T13:15:44;10.50;99.90
25568;DHT22;13455;51.480;7.594;2023-04-07T13:18:10;10.50;99.90
25568;DHT22;13455;51.480;7.594;2023-04-07T13:20:35;10.60;99.90
25568;DHT22;13455;51.480;7.594;2023-04-07T13:23:02;10.30;99.90
25568;DHT22;13455;51.480;7.594;2023-04-07T13:25:27;10.90;99.90
25568;DHT22;13455;51.480;7.594;2023-04-07T13:27:53;10.60;99.90
25568;DHT22;13455;51.480;7.594;2023-04-07T13:30:19;10.60;99.90
25568;DHT22;13455;51.480;7.594;2023-04-07T13:32:44;10.90;99.90
25568;DHT22;13455;51.480;7.594;2023-04-07T13:35:17;11.10;99.90
25568;DHT22;13455;51.480;7.594;2023-04-07T13:37:43;10.90;99.90
25568;DHT22;13455;51.480;7.594;2023-04-07T13:40:10;10.70;99.90
25568;DHT22;13455;51.480;7.594;2023-04-07T13:42:37;11.00;99.90
25568;DHT22;13455;51.480;7.594;2023-04-07T13:45:03;11.10;99.90
25568;DHT22;13455;51.480;7.594;2023-04-07T13:47:29;10.80;99.90
25568;DHT22;13455;51.480;7.594;2023-04-07T13:50:01;11.90;99.90
25568;DHT22;13455;51.480;7.594;2023-04-07T13:52:27;11.20;99.90
25568;DHT22;13455;51.480;7.594;2023-04-07T13:54:53;11.30;99.90
25568;DHT22;13455;51.480;7.594;2023-04-07T13:57:19;10.90;99.90
25568;DHT22;13455;51.480;7.594;2023-04-07T13:59:46;12.30;99.90
25568;DHT22;13455;51.480;7.594;2023-04-07T14:02:13;10.60;99.90
25568;DHT22;13455;51.480;7.594;2023-04-07T14:04:39;12.40;99.90
25568;DHT22;13455;51.480;7.594;2023-04-07T14:07:04;11.20;99.90
25568;DHT22;13455;51.480;7.594;2023-04-07T14:09:30;11.60;99.90
25568;DHT22;13455;51.480;7.594;2023-04-07T14:11:56;11.70;99.90
25568;DHT22;13455;51.480;7.594;2023-04-07T14:14:22;12.20;99.90
25568;DHT22;13455;51.480;7.594;2023-04-07T14:16:48;11.70;99.90
25568;DHT22;13455;51.480;7.594;2023-04-07T14:19:19;11.10;99.90
25568;DHT22;13455;51.480;7.594;2023-04-07T14:21:46;11.00;99.90
25568;DHT22;13455;51.480;7.594;2023-04-07T14:24:12;10.90;99.90
25568;DHT22;13455;51.480;7.594;2023-04-07T14:26:38;11.50;99.90
25568;DHT22;13455;51.480;7.594;2023-04-07T14:29:03;11.10;99.90
25568;DHT22;13455;51.480;7.594;2023-04-07T14:31:29;11.40;99.90
25568;DHT22;13455;51.480;7.594;2023-04-07T14:33:54;11.00;99.90
25568;DHT22;13455;51.480;7.594;2023-04-07T14:36:20;12.00;99.90
25568;DHT22;13455;51.480;7.594;2023-04-07T14:38:46;11.00;99.90
25568;DHT22;13455;51.480;7.594;2023-04-07T14:41:12;11.10;99.90
25568;DHT22;13455;51.480;7.594;2023-04-07T14:43:37;11.60;99.90
25568;DHT22;13455;51.480;7.594;2023-04-07T14:46:04;11.10;99.90
25568;DHT22;13455;51.480;7.594;2023-04-07T14:48:30;12.20;99.90
25568;DHT22;13455;51.480;7.594;2023-04-07T14:50:56;11.10;99.90
25568;DHT22;13455;51.480;7.594;2023-04-07T14:53:22;10.50;99.90
25568;DHT22;13455;51.480;7.594;2023-04-07T14:55:48;11.20;99.90
25568;DHT22;13455;51.480;7.594;2023-04-07T14:58:14;11.40;99.90
25568;DHT22;13455;51.480;7.594;2023-04-07T15:00:39;11.10;99.90
25568;DHT22;13455;51.480;7.594;2023-04-07T15:03:05;11.10;99.90
25568;DHT22;13455;51.480;7.594;2023-04-07T15:05:31;11.00;99.90
25568;DHT22;13455;51.480;7.594;2023-04-07T15:07:56;11.30;99.90
25568;DHT22;13455;51.480;7.594;2023-04-07T15:10:23;11.10;99.90
25568;DHT22;13455;51.480;7.594;2023-04-07T15:12:48;11.00;99.90
25568;DHT22;13455;51.480;7.594;2023-04-07T15:15:15;11.00;99.90
25568;DHT22;13455;51.480;7.594;2023-04-07T15:17:41;11.00;99.90
25568;DHT22;13455;51.480;7.594;2023-04-07T15:20:07;10.90;99.90
25568;DHT22;13455;51.480;7.594;2023-04-07T15:22:34;10.90;99.90
25568;DHT22;13455;51.480;7.594;2023-04-07T15:24:59;10.80;99.90
25568;DHT22;13455;51.480;7.594;2023-04-07T15:27:26;12.10;99.90
25568;DHT22;13455;51.480;7.594;2023-04-07T15:29:51;11.00;99.90
25568;DHT22;13455;51.480;7.594;2023-04-07T15:32:17;11.70;99.90
25568;DHT22;13455;51.480;7.594;2023-04-07T15:34:42;11.30;99.90
25568;DHT22;13455;51.480;7.594;2023-04-07T15:37:08;11.40;99.90
25568;DHT22;13455;51.480;7.594;2023-04-07T15:39:34;12.20;99.90
25568;DHT22;13455;51.480;7.594;2023-04-07T15:41:59;11.30;99.90
25568;DHT22;13455;51.480;7.594;2023-04-07T15:44:25;11.60;99.90
25568;DHT22;13455;51.480;7.594;2023-04-07T15:46:50;11.30;99.90
25568;DHT22;13455;51.480;7.594;2023-04-07T15:49:18;11.80;99.90
25568;DHT22;13455;51.480;7.594;2023-04-07T15:51:47;12.10;99.90
25568;DHT22;13455;51.480;7.594;2023-04-07T15:54:12;11.20;99.90
25568;DHT22;13455;51.480;7.594;2023-04-07T15:56:38;11.90;99.90
25568;DHT22;13455;51.480;7.594;2023-04-07T15:59:03;11.10;99.90